Flight Track Log - Related Links

Times and Time Zones

All times are in EDT time to prevent confusion due to time zone crossing. See the SWA2236 flight status page for this flight to view local times or setup timezone preferences in your user account.

Time Position Orientation Groundspeed Altitude Reporting Facility
EDT Latitude Longitude Course Direction KTS MPH feet Rate Location/Type
Thu 02:47:35 PM 36.0775 -115.1144 91° East 151 174 3,200  Level Los Angeles Center
Thu 02:48:24 PM 36.0764 -115.0511 91° East 222 255 4,300 1,856 Climbing Los Angeles Center
Thu 02:49:12 PM 36.0756 -114.9789 91° East 232 267 6,200 2,618 Climbing Los Angeles Center
Thu 02:50:14 PM 36.0664 -114.8756 96° East 286 329 9,100 2,468 Climbing Los Angeles Center
Thu 02:51:16 PM 36.0503 -114.7700 101° East 307 353 11,300 2,274 Climbing Los Angeles Center
Thu 02:52:18 PM 36.0325 -114.6458 100° East 353 406 13,800 2,806 Climbing Los Angeles Center
Thu 02:53:20 PM 36.0156 -114.5281 100° East 356 410 17,100 2,286 Climbing Los Angeles Center
Thu 02:54:24 PM 35.9972 -114.4058 100° East 358 412 18,600 1,680 Climbing Los Angeles Center
Thu 02:55:25 PM 35.9733 -114.2469 100° East 385 443 20,600 2,000 Climbing Los Angeles Center
Thu 02:56:27 PM 35.9600 -114.1067 97° East 405 466 22,700 1,839 Climbing Los Angeles Center
Thu 02:57:29 PM 35.9625 -113.9611 89° East 419 482 24,400 1,548 Climbing Los Angeles Center
Thu 02:58:31 PM 35.9617 -113.8117 90° East 429 494 25,900 1,258 Climbing Los Angeles Center
Thu 02:59:33 PM 35.9592 -113.6897 91° East 440 506 27,000 1,306 Climbing Los Angeles Center
Thu 03:00:35 PM 35.9578 -113.4975 90° East 456 525 28,600 1,355 Climbing Los Angeles Center
Thu 03:01:37 PM 35.9558 -113.3361 91° East 466 536 29,800 1,440 Climbing Los Angeles Center
Thu 03:02:40 PM 35.9539 -113.1417 91° East 471 542 31,600 1,632 Climbing Los Angeles Center
Thu 03:03:42 PM 35.9503 -112.9789 92° East 474 545 33,200 1,317 Climbing Los Angeles Center
Thu 03:04:43 PM 35.9283 -112.8556 102° East 465 535 34,300 1,210 Climbing Los Angeles Center
Thu 03:05:46 PM 35.8875 -112.6731 105° East 459 528 35,700 1,296 Climbing Los Angeles Center
Thu 03:06:48 PM 35.8442 -112.5267 110° East 457 526 37,000 629 Climbing Los Angeles Center
Thu 03:07:50 PM 35.8036 -112.3819 109° East 449 517 37,000  Level Los Angeles Center
Thu 03:08:52 PM 35.7597 -112.2383 111° Southeast 448 516 37,000  Level Los Angeles Center
Thu 03:09:54 PM 35.7083 -112.0669 110° East 446 513 37,000  Level Los Angeles Center
Thu 03:10:56 PM 35.6850 -111.9178 101° East 443 510 37,000  Level Los Angeles Center
Thu 03:11:58 PM 35.6742 -111.7667 95° East 444 511 37,000  Level Los Angeles Center
Thu 03:12:59 PM 35.6628 -111.6172 95° East 442 509 37,000  Level Albuquerque Center
Thu 03:14:00 PM 35.6522 -111.4672 95° East 441 507 37,000  Level Albuquerque Center
Thu 03:15:02 PM 35.6403 -111.3069 95° East 442 509 37,000  Level Albuquerque Center
Thu 03:16:04 PM 35.6275 -111.1381 95° East 444 511 37,000  Level Albuquerque Center
Thu 03:17:06 PM 35.6186 -110.9947 94° East 443 510 37,000  Level Albuquerque Center
Thu 03:18:07 PM 35.6044 -110.8256 96° East 443 510 37,000  Level Albuquerque Center
Thu 03:19:09 PM 35.5939 -110.6819 95° East 443 510 37,000  Level Albuquerque Center
Thu 03:20:11 PM 35.5811 -110.5128 95° East 444 511 37,000  Level Albuquerque Center
Thu 03:21:13 PM 35.5714 -110.3681 95° East 445 512 37,000  Level Albuquerque Center
Thu 03:22:14 PM 35.5583 -110.2214 96° East 449 517 37,000  Level Albuquerque Center
Thu 03:23:16 PM 35.5456 -110.0528 95° East 447 514 37,000  Level Albuquerque Center
Thu 03:24:18 PM 35.5331 -109.9058 96° East 450 518 37,000  Level Albuquerque Center
Thu 03:25:19 PM 35.5189 -109.7347 96° East 451 519 37,000  Level Albuquerque Center
Thu 03:26:21 PM 35.5064 -109.5878 96° East 453 521 37,000  Level Albuquerque Center
Thu 03:27:23 PM 35.4919 -109.4147 96° East 456 525 37,000  Level Albuquerque Center
Thu 03:28:25 PM 35.4797 -109.2669 96° East 457 526 37,000  Level Albuquerque Center
Thu 03:29:26 PM 35.4636 -109.0961 97° East 455 524 37,000  Level Albuquerque Center
Thu 03:30:28 PM 35.4511 -108.9508 96° East 452 520 37,000  Level Albuquerque Center
Thu 03:31:30 PM 35.4381 -108.8069 96° East 449 517 37,000  Level Albuquerque Center
Thu 03:32:32 PM 35.4225 -108.6378 96° East 448 516 37,000  Level Albuquerque Center
Thu 03:33:33 PM 35.4097 -108.4919 96° East 451 519 37,000  Level Albuquerque Center
Thu 03:34:35 PM 35.3931 -108.3250 97° East 447 514 37,000  Level Albuquerque Center
Thu 03:35:37 PM 35.3797 -108.1817 96° East 445 512 37,000  Level Albuquerque Center
Thu 03:36:38 PM 35.3636 -108.0156 97° East 442 509 37,000  Level Albuquerque Center
Thu 03:37:40 PM 35.3503 -107.8728 96° East 442 509 37,000  Level Albuquerque Center
Thu 03:38:42 PM 35.3319 -107.7089 98° East 438 504 37,000  Level Albuquerque Center
Thu 03:39:43 PM 35.3169 -107.5681 97° East 437 503 37,000  Level Albuquerque Center
Thu 03:40:45 PM 35.3025 -107.4181 97° East 440 506 37,000  Level Albuquerque Center
Thu 03:41:47 PM 35.2864 -107.2681 97° East 442 509 37,000  Level Albuquerque Center
Thu 03:42:48 PM 35.2714 -107.1147 97° East 445 512 37,000  Level Albuquerque Center
Thu 03:43:50 PM 35.2525 -106.9500 98° East 438 504 37,000  Level Albuquerque Center
Thu 03:44:51 PM 35.2383 -106.8081 97° East 438 504 37,000  Level Albuquerque Center
Thu 03:45:53 PM 35.2200 -106.6433 98° East 438 504 37,000  Level Albuquerque Center
Thu 03:46:55 PM 35.2047 -106.5147 98° East 444 511 37,000  Level Albuquerque Center
Thu 03:47:56 PM 35.1875 -106.3647 98° East 443 510 37,000  Level Albuquerque Center
Thu 03:48:58 PM 35.1681 -106.1969 98° East 443 510 37,000  Level Albuquerque Center
Thu 03:50:00 PM 35.1671 -106.0432 90° East  Level FlightAware Approximate
Thu 03:51:01 PM 35.1325 -105.8975 90° East 443 510 37,000  Level Albuquerque Center
Thu 03:52:02 PM 35.1147 -105.7464 98° East 445 512 37,000  Level Albuquerque Center
Thu 03:53:04 PM 35.0936 -105.5708 98° East 444 511 37,000  Level Albuquerque Center
Thu 03:54:06 PM 35.0756 -105.4214 98° East 442 509 37,000  Level Albuquerque Center
Thu 03:55:07 PM 35.0569 -105.2719 99° East 442 509 37,000  Level Albuquerque Center
Thu 03:56:09 PM 35.0383 -105.1231 99° East 440 506 37,000  Level Albuquerque Center
Thu 03:57:10 PM 35.0214 -104.9733 98° East 441 507 37,000  Level Albuquerque Center
Thu 03:58:12 PM 35.0017 -104.8233 99° East 443 510 37,000  Level Albuquerque Center
Thu 03:59:14 PM 34.9819 -104.6733 99° East 445 512 37,000  Level Albuquerque Center
Thu 04:00:15 PM 34.9628 -104.5244 99° East 444 511 37,000  Level Albuquerque Center
Thu 04:01:17 PM 34.9428 -104.3750 99° East 446 513 37,000  Level Albuquerque Center
Thu 04:02:18 PM 34.9200 -104.1986 99° East 451 519 37,000  Level Albuquerque Center
Thu 04:03:20 PM 34.9008 -104.0472 99° East 452 520 37,000  Level Albuquerque Center
Thu 04:04:22 PM 34.8808 -103.8958 99° East 453 521 37,000  Level Albuquerque Center
Thu 04:05:23 PM 34.8606 -103.7472 99° East 447 514 37,000  Level Albuquerque Center
Thu 04:06:25 PM 34.8403 -103.5975 99° East 447 514 37,000  Level Albuquerque Center
Thu 04:07:27 PM 34.8203 -103.4478 99° East 446 513 37,000  Level Albuquerque Center
Thu 04:08:28 PM 34.8011 -103.2989 99° East 444 511 37,000  Level Albuquerque Center
Thu 04:09:30 PM 34.7753 -103.1247 100° East 445 512 37,000  Level Albuquerque Center
Thu 04:10:32 PM 34.7536 -102.9742 100° East 448 516 37,000  Level Albuquerque Center
Thu 04:11:33 PM 34.7322 -102.8217 100° East 452 520 37,000  Level Albuquerque Center
Thu 04:12:35 PM 34.7097 -102.6700 100° East 453 521 37,000  Level Albuquerque Center
Thu 04:13:37 PM 34.6875 -102.5214 100° East 457 526 37,000  Level Albuquerque Center
Thu 04:14:38 PM 34.6664 -102.3703 100° East 457 526 37,000  Level Albuquerque Center
Thu 04:15:40 PM 34.6472 -102.2194 99° East 455 524 37,000  Level Albuquerque Center
Thu 04:16:42 PM 34.6389 -102.0389 93° East 452 520 37,000  Level Albuquerque Center
Thu 04:17:43 PM 34.6339 -101.8886 92° East 451 519 37,000  Level Albuquerque Center
Thu 04:18:45 PM 34.6242 -101.7378 94° East 451 519 37,000  Level Albuquerque Center
Thu 04:19:47 PM 34.6147 -101.5864 94° East 452 520 37,000  Level Albuquerque Center
Thu 04:20:48 PM 34.6058 -101.4372 94° East 451 519 37,000  Level Albuquerque Center
Thu 04:21:50 PM 34.5964 -101.2886 94° East 448 516 37,000  Level Albuquerque Center
Thu 04:22:52 PM 34.5858 -101.1094 94° East 446 513 37,000  Level Albuquerque Center
Thu 04:23:53 PM 34.5767 -100.9603 94° East 447 514 37,000  Level Albuquerque Center
Thu 04:24:55 PM 34.5500 -100.8147 103° East 448 516 37,000  Level Albuquerque Center
Thu 04:25:57 PM 34.5256 -100.6675 101° East 446 513 37,000  Level Albuquerque Center
Thu 04:26:58 PM 34.5008 -100.5197 101° East 449 517 37,000  Level Albuquerque Center
Thu 04:28:00 PM 34.4756 -100.3714 102° East 451 519 37,000  Level Albuquerque Center
Thu 04:29:02 PM 34.4489 -100.2214 102° East 454 522 37,000  Level Albuquerque Center
Thu 04:29:42 PM 34.4283 -100.1000 102° East 449 517 37,000  Level Fort Worth Center
Thu 04:30:41 PM 34.4022 -99.9506 102° East 449 517 37,000  Level Fort Worth Center
Thu 04:31:41 PM 34.3781 -99.8014 101° East 449 517 37,000  Level Fort Worth Center
Thu 04:32:41 PM 34.3472 -99.6497 104° East 454 522 37,000  Level Fort Worth Center
Thu 04:33:41 PM 34.3267 -99.5183 101° East 447 514 37,000  Level Fort Worth Center
Thu 04:34:41 PM 34.2978 -99.3667 103° East 455 524 37,000  Level Fort Worth Center
Thu 04:35:42 PM 34.2708 -99.2156 102° East 450 518 37,000  Level Fort Worth Center
Thu 04:36:41 PM 34.2417 -99.0592 103° East 445 512 37,000  Level Fort Worth Center
Thu 04:37:41 PM 34.2122 -98.9078 103° East 445 512 37,000  Level Fort Worth Center
Thu 04:38:41 PM 34.1828 -98.7592 103° East 451 519 37,000  Level Fort Worth Center
Thu 04:39:41 PM 34.1550 -98.6106 103° East 451 519 37,000  Level Fort Worth Center
Thu 04:40:41 PM 34.1272 -98.4647 103° East 451 519 37,000  Level Fort Worth Center
Thu 04:41:41 PM 34.0969 -98.3089 103° East 451 519 37,000  Level Fort Worth Center
Thu 04:42:42 PM 34.0772 -98.1708 100° East 457 526 37,000  Level Fort Worth Center
Thu 04:43:41 PM 34.0508 -98.0200 102° East 452 520 37,000  Level Fort Worth Center
Thu 04:44:42 PM 34.0203 -97.8719 104° East 452 520 37,000  Level Fort Worth Center
Thu 04:45:42 PM 33.9933 -97.7242 102° East 452 520 37,000  Level Fort Worth Center
Thu 04:46:42 PM 33.9625 -97.5761 104° East 452 520 37,000  Level Fort Worth Center
Thu 04:47:41 PM 33.9333 -97.4311 104° East 452 520 37,000 303 Level Fort Worth Center
Thu 04:48:41 PM 33.9042 -97.2808 103° East 452 520 37,600 1,000 Climbing Fort Worth Center
Thu 04:49:41 PM 33.8747 -97.1358 104° East 452 520 39,000 700 Climbing Fort Worth Center
Thu 04:50:41 PM 33.8469 -96.9883 103° East 447 514 39,000  Level Fort Worth Center
Thu 04:51:41 PM 33.8319 -96.8408 97° East 447 514 39,000  Level Fort Worth Center
Thu 04:52:41 PM 33.8164 -96.6908 97° East 447 514 39,000  Level Fort Worth Center
Thu 04:53:42 PM 33.8031 -96.5486 96° East 447 514 39,000  Level Fort Worth Center
Thu 04:54:42 PM 33.7875 -96.4039 97° East 439 505 39,000  Level Fort Worth Center
Thu 04:55:41 PM 33.7758 -96.2589 95° East 434 499 39,000  Level Fort Worth Center
Thu 04:56:41 PM 33.7639 -96.1142 96° East 434 499 39,000  Level Fort Worth Center
Thu 04:57:41 PM 33.7519 -95.9719 96° East 434 499 39,000  Level Fort Worth Center
Thu 04:58:41 PM 33.7419 -95.8272 95° East 434 499 39,000  Level Fort Worth Center
Thu 04:59:41 PM 33.7294 -95.6828 96° East 434 499 39,000  Level Fort Worth Center
Thu 05:00:41 PM 33.7189 -95.5281 95° East 429 494 39,000  Level Fort Worth Center
Thu 05:01:41 PM 33.7022 -95.3861 98° East 424 488 39,000  Level Fort Worth Center
Thu 05:02:42 PM 33.6933 -95.2414 94° East 424 488 39,000  Level Fort Worth Center
Thu 05:03:41 PM 33.6825 -95.0994 95° East 424 488 39,000  Level Fort Worth Center
Thu 05:04:41 PM 33.6631 -94.9553 99° East 424 488 39,000  Level Fort Worth Center
Thu 05:05:42 PM 33.6269 -94.8167 107° East 429 494 39,000  Level Fort Worth Center
Thu 05:06:41 PM 33.5925 -94.6731 106° East 429 494 39,000  Level Fort Worth Center
Thu 05:07:41 PM 33.5581 -94.5319 106° East 437 503 39,000  Level Fort Worth Center
Thu 05:08:42 PM 33.5256 -94.3911 105° East 437 503 39,000  Level Fort Worth Center
Thu 05:09:42 PM 33.4908 -94.2503 106° East 437 503 39,000  Level Fort Worth Center
Thu 05:10:42 PM 33.4628 -94.1367 106° East 437 503 39,000  Level Fort Worth Center
Thu 05:11:42 PM 33.4231 -93.9714 106° East 437 503 39,000  Level Fort Worth Center
Thu 05:12:41 PM 33.3881 -93.8433 108° East 442 509 39,000  Level Fort Worth Center
Thu 05:13:41 PM 33.3522 -93.6908 106° East 457 526 39,000  Level Fort Worth Center
Thu 05:14:42 PM 33.3147 -93.5556 108° East 449 517 39,000  Level Fort Worth Center
Thu 05:15:41 PM 33.2811 -93.4156 106° East 437 503 39,000  Level Fort Worth Center
Thu 05:16:41 PM 33.2456 -93.2806 107° East 437 503 39,000  Level Fort Worth Center
Thu 05:17:42 PM 33.2050 -93.1283 108° East 437 503 39,000  Level Fort Worth Center
Thu 05:18:41 PM 33.1711 -92.9936 107° East 432 497 39,000  Level Fort Worth Center
Thu 05:19:41 PM 33.1328 -92.8542 108° East 437 503 39,000  Level Fort Worth Center
Thu 05:20:41 PM 33.0983 -92.7144 106° East 437 503 39,000  Level Fort Worth Center
Thu 05:22:50 PM 33.0183 -92.4211 108° East 444 511 39,000  Level Memphis Center
Thu 05:23:50 PM 32.9828 -92.2817 107° East 444 511 39,000  Level Memphis Center
Thu 05:24:50 PM 32.9453 -92.1469 108° East 438 504 39,000  Level Memphis Center
Thu 05:25:50 PM 32.9175 -92.0375 107° East 438 504 39,000  Level Memphis Center
Thu 05:26:50 PM 32.8714 -91.8883 110° East 438 504 39,000  Level Memphis Center
Thu 05:27:50 PM 32.8333 -91.7517 108° East 433 498 39,000  Level Memphis Center
Thu 05:28:50 PM 32.7950 -91.6128 108° East 433 498 39,000  Level Memphis Center
Thu 05:29:50 PM 32.7650 -91.4764 105° East 428 493 39,000  Level Memphis Center
Thu 05:30:50 PM 32.7392 -91.3353 102° East 428 493 39,000  Level Memphis Center
Thu 05:31:50 PM 32.7067 -91.1942 105° East 428 493 39,000  Level Memphis Center
Thu 05:32:50 PM 32.6783 -91.0558 104° East 433 498 39,000  Level Memphis Center
Thu 05:33:50 PM 32.6456 -90.9100 105° East 439 505 39,000  Level Memphis Center
Thu 05:34:50 PM 32.6150 -90.7692 104° East 439 505 39,000  Level Memphis Center
Thu 05:35:50 PM 32.5797 -90.6064 104° East 445 512 39,000  Level Memphis Center
Thu 05:36:50 PM 32.5486 -90.4658 105° East 445 512 39,000  Level Memphis Center
Thu 05:37:50 PM 32.5133 -90.3178 106° East 451 519 39,000  Level Memphis Center
Thu 05:38:50 PM 32.4817 -90.1725 104° East 456 525 39,000  Level Memphis Center
Thu 05:39:50 PM 32.4481 -90.0250 104° East 456 525 39,000  Level Memphis Center
Thu 05:40:00 PM 32.4486 -90.0102 104° East  Level FlightAware Approximate
Thu 05:40:50 PM 32.4164 -89.8800 104° East 456 525 39,000  Level Memphis Center
Thu 05:41:50 PM 32.3822 -89.7325 105° East 456 525 39,000  Level Memphis Center
Thu 05:42:50 PM 32.3481 -89.5828 105° East 456 525 39,000  Level Memphis Center
Thu 05:43:50 PM 32.3178 -89.4453 105° East 461 531 39,000  Level Memphis Center
Thu 05:44:50 PM 32.2853 -89.2983 105° East 467 537 39,000  Level Memphis Center
Thu 05:45:50 PM 32.2506 -89.1489 105° East 467 537 39,000  Level Memphis Center
Thu 05:46:50 PM 32.2136 -88.9994 106° East 472 543 39,000  Level Memphis Center
Thu 05:47:50 PM 32.1806 -88.8503 105° East 472 543 39,000  Level Memphis Center
Thu 05:49:48 PM 32.1067 -88.5503 106° East 478 550 39,000  Level Atlanta Center
Thu 05:50:48 PM 32.0725 -88.3992 105° East 478 550 39,000  Level Atlanta Center
Thu 05:51:48 PM 32.0358 -88.2478 106° East 478 550 39,000  Level Atlanta Center
Thu 05:52:48 PM 32.0014 -88.0992 105° East 478 550 39,000  Level Atlanta Center
Thu 05:53:48 PM 31.9644 -87.9508 106° East 478 550 39,000  Level Atlanta Center
Thu 05:54:48 PM 31.9272 -87.7997 106° East 478 550 39,000  Level Atlanta Center
Thu 05:55:48 PM 31.8919 -87.6517 106° East 478 550 39,000  Level Atlanta Center
Thu 05:56:48 PM 31.8567 -87.5061 106° East 473 544 39,000  Level Atlanta Center
Thu 05:57:48 PM 31.8208 -87.3628 106° East 462 532 39,000  Level Atlanta Center
Thu 05:58:48 PM 31.7825 -87.2319 109° East 467 537 39,000  Level Atlanta Center
Thu 05:59:48 PM 31.7444 -87.0867 107° East 467 537 39,000  Level Atlanta Center
Thu 06:02:02 PM 31.6625 -86.7708 107° East 446 513 39,000  Level Jacksonville Center
Thu 06:03:02 PM 31.6272 -86.6281 106° East 446 513 39,000  Level Jacksonville Center
Thu 06:04:02 PM 31.5875 -86.4872 108° East 451 519 39,000  Level Jacksonville Center
Thu 06:05:02 PM 31.5517 -86.3422 106° East 451 519 39,000  Level Jacksonville Center
Thu 06:06:02 PM 31.5136 -86.2019 108° East 451 519 39,000  Level Jacksonville Center
Thu 06:07:02 PM 31.4778 -86.0592 106° East 451 519 39,000  Level Jacksonville Center
Thu 06:08:02 PM 31.4394 -85.9167 107° East 451 519 39,000  Level Jacksonville Center
Thu 06:09:02 PM 31.4011 -85.7744 107° East 451 519 39,000  Level Jacksonville Center
Thu 06:10:02 PM 31.3664 -85.6347 106° East 451 519 39,000  Level Jacksonville Center
Thu 06:11:02 PM 31.3217 -85.4850 109° East 451 519 39,000  Level Jacksonville Center
Thu 06:12:02 PM 31.2950 -85.3553 103° East 451 519 39,000  Level Jacksonville Center
Thu 06:13:02 PM 31.2558 -85.2133 108° East 446 513 39,000  Level Jacksonville Center
Thu 06:14:02 PM 31.2147 -85.0667 108° East 446 513 39,000 -100 Level Jacksonville Center
Thu 06:15:02 PM 31.1731 -84.9272 109° East 446 513 38,800 -600 Descending Jacksonville Center
Thu 06:16:02 PM 31.1378 -84.7858 106° East 446 513 37,800 -1,000 Descending Jacksonville Center
Thu 06:17:02 PM 31.1000 -84.6467 108° East 446 513 36,800 -950 Descending Jacksonville Center
Thu 06:18:02 PM 31.0603 -84.5053 108° East 446 513 35,900 -950 Descending Jacksonville Center
Thu 06:19:02 PM 31.0222 -84.3664 108° East 446 513 34,900 -950 Descending Jacksonville Center
Thu 06:20:02 PM 30.9839 -84.2303 108° East 446 513 34,000 -950 Descending Jacksonville Center
Thu 06:21:02 PM 30.9436 -84.0867 108° East 446 513 33,000 -950 Descending Jacksonville Center
Thu 06:22:02 PM 30.9053 -83.9483 108° East 446 513 32,100 -950 Descending Jacksonville Center
Thu 06:23:02 PM 30.8644 -83.8075 109° East 446 513 31,100 -1,000 Descending Jacksonville Center
Thu 06:24:02 PM 30.8258 -83.6692 108° East 446 513 30,100 -1,050 Descending Jacksonville Center
Thu 06:25:02 PM 30.7911 -83.5333 107° East 446 513 29,000 -1,050 Descending Jacksonville Center
Thu 06:26:02 PM 30.7519 -83.3978 109° East 441 507 28,000 -1,150 Descending Jacksonville Center
Thu 06:27:02 PM 30.7128 -83.2672 109° East 441 507 26,700 -1,750 Descending Jacksonville Center
Thu 06:28:02 PM 30.6756 -83.1414 109° East 423 487 24,500 -2,100 Descending Jacksonville Center
Thu 06:29:02 PM 30.6403 -83.0158 108° East 418 481 22,500 -1,650 Descending Jacksonville Center
Thu 06:30:02 PM 30.6089 -82.9094 109° East 404 465 21,200 -1,950 Descending Jacksonville Center
Thu 06:31:02 PM 30.5922 -82.7889 99° East 381 438 18,600 -2,550 Descending Jacksonville Center
Thu 06:32:02 PM 30.5836 -82.6731 95° East 369 425 16,100 -2,278 Descending Jacksonville Center
Thu 06:32:50 PM 30.5772 -82.5717 94° East 359 413 14,500 -2,000 Descending Jacksonville Center
Thu 06:33:38 PM 30.5497 -82.4825 110° East 347 399 12,900 -1,817 Descending Jacksonville Center
Thu 06:34:39 PM 30.5161 -82.3789 111° Southeast 340 391 11,200 -934 Descending Jacksonville Center
Thu 06:35:40 PM 30.4989 -82.2825 102° East 299 344 11,000 -738 Descending Jacksonville Center
Thu 06:36:41 PM 30.4797 -82.1864 103° East 291 335 9,700 -1,525 Descending Jacksonville Center
Thu 06:37:42 PM 30.4686 -82.0853 97° East 295 339 7,900 -1,377 Descending Jacksonville Center
Thu 06:38:43 PM 30.4908 -81.9983 73° East 275 316 6,900 -992 Descending Jacksonville Center
Thu 06:39:43 PM 30.5092 -81.9208 75° East 245 282 5,900 -1,096 Descending Jacksonville Center
Thu 06:40:38 PM 30.5294 -81.8531 71° East 240 276 4,800 -983 Descending Jacksonville Center
Thu 06:41:39 PM 30.5478 -81.7781 74° East 236 272 4,000 -393 Descending Jacksonville Center
Thu 06:42:40 PM 30.5953 -81.7222 45° Northeast 246 283 4,000 -443 Level Jacksonville Center
Thu 06:43:41 PM 30.6092 -81.6472 78° East 231 266 3,100 -885 Descending Jacksonville Center
Thu 06:44:42 PM 30.6167 -81.5747 83° East 227 261 2,200 -545 Descending Jacksonville Center
Thu 06:45:42 PM 30.5869 -81.5317 129° Southeast 180 207 2,000 -99 Descending Jacksonville Center
Thu 06:46:43 PM 30.5475 -81.5322 181° South 185 213 2,000 -246 Level Jacksonville Center
Thu 06:47:44 PM 30.5292 -81.5878 249° West 177 204 1,500 -639 Descending Jacksonville Center
Thu 06:48:45 PM 30.5150 -81.6339 250° West 150 173 700 -787 Descending Jacksonville Center
Thu 06:50:00 PM 30.4833 -81.6833 217° Southwest  Level FlightAware Approximate
Thu 06:57:00 PM 30.4941 -81.6879 217° Southwest  Level Estimated

Login

Don't have an account? Register now (free) for customized features, flight alerts, and more!